Time;durP1;ratioP1;P1;durP2;ratioP2;P2;SDS_P1;SDS_P2;PMS_P1;PMS_P2;Temp;Humidity;BMP_temperature;BMP_pressure;BME280_temperature;BME280_humidity;BME280_pressure;Samples;Min_cycle;Max_cycle;Signal;HPM_P1;HPM_P2
2023/10/08 00:02:21;;;;;;;36.58;24.55;;;;;;;;;;6312022;28;20112;-75
2023/10/08 00:05:24;;;;;;;34.58;24.23;;;;;;;;;;6321996;28;20270;-75
2023/10/08 00:08:26;;;;;;;38.55;25.23;;;;;;;;;;6325777;28;20107;-76
2023/10/08 00:11:29;;;;;;;32.60;23.52;;;;;;;;;;6315370;28;20054;-75
2023/10/08 00:14:32;;;;;;;36.45;25.38;;;;;;;;;;6302763;28;20076;-78
2023/10/08 00:17:34;;;;;;;33.93;24.77;;;;;;;;;;6316285;28;20059;-78
2023/10/08 00:20:42;;;;;;;34.13;25.00;;;;;;;;;;6303324;28;20056;-76
2023/10/08 00:23:52;;;;;;;35.65;24.58;;;;;;;;;;6308219;28;20048;-77
2023/10/08 00:26:54;;;;;;;33.90;24.00;;;;;;;;;;6304672;28;20044;-75
2023/10/08 00:29:56;;;;;;;33.67;23.17;;;;;;;;;;6306682;28;20064;-74
2023/10/08 00:32:58;;;;;;;40.33;24.95;;;;;;;;;;6322462;28;20125;-76
2023/10/08 00:36:17;;;;;;;40.05;25.27;;;;;;;;;;6317573;28;20064;-76
2023/10/08 00:39:22;;;;;;;40.28;26.77;;;;;;;;;;6304913;28;20052;-76
2023/10/08 00:42:25;;;;;;;35.70;25.40;;;;;;;;;;6304508;28;20243;-76
2023/10/08 00:45:30;;;;;;;42.13;27.13;;;;;;;;;;6315785;28;20397;-76
2023/10/08 00:48:36;;;;;;;39.45;26.67;;;;;;;;;;6329221;28;20349;-76
2023/10/08 00:51:41;;;;;;;40.17;24.92;;;;;;;;;;6322423;28;20106;-76
2023/10/08 00:54:53;;;;;;;39.08;26.55;;;;;;;;;;6313719;28;20052;-76
2023/10/08 00:57:58;;;;;;;37.50;26.98;;;;;;;;;;6302893;28;20093;-76
2023/10/08 01:01:00;;;;;;;44.08;28.42;;;;;;;;;;6299597;28;20111;-76
2023/10/08 01:04:06;;;;;;;39.75;25.73;;;;;;;;;;6316001;28;20327;-77
2023/10/08 01:07:12;;;;;;;46.33;29.35;;;;;;;;;;6327531;28;20044;-76
2023/10/08 01:10:19;;;;;;;43.47;27.35;;;;;;;;;;6325187;28;20096;-75
2023/10/08 01:13:21;;;;;;;43.40;27.58;;;;;;;;;;6302903;28;20067;-75
2023/10/08 01:16:26;;;;;;;38.97;26.52;;;;;;;;;;6303504;28;20059;-76
2023/10/08 01:19:28;;;;;;;47.42;29.15;;;;;;;;;;6328619;28;20036;-75
2023/10/08 01:22:33;;;;;;;47.35;29.30;;;;;;;;;;6329994;28;20044;-75
2023/10/08 01:25:35;;;;;;;47.53;29.85;;;;;;;;;;6330471;28;20047;-76
2023/10/08 01:28:36;;;;;;;52.58;30.90;;;;;;;;;;6314024;28;20083;-76
2023/10/08 01:31:40;;;;;;;52.20;29.10;;;;;;;;;;6319948;28;20040;-76
2023/10/08 01:34:45;;;;;;;54.33;31.10;;;;;;;;;;6314944;28;20063;-77
2023/10/08 01:37:49;;;;;;;46.10;29.92;;;;;;;;;;6305003;28;20744;-76
2023/10/08 01:40:51;;;;;;;48.08;30.75;;;;;;;;;;6326923;28;20149;-76
2023/10/08 01:43:53;;;;;;;49.45;31.33;;;;;;;;;;6314382;28;20222;-76
2023/10/08 01:46:57;;;;;;;50.78;30.75;;;;;;;;;;6305210;28;20109;-77
2023/10/08 01:50:06;;;;;;;;;;;;;;;;;;6315128;28;20097;-76
2023/10/08 01:53:10;;;;;;;52.25;34.15;;;;;;;;;;6326886;28;19979;-75
2023/10/08 01:56:12;;;;;;;50.35;33.13;;;;;;;;;;6328407;28;20043;-76
2023/10/08 01:59:15;;;;;;;50.42;33.10;;;;;;;;;;6327565;28;20351;-76
2023/10/08 02:02:17;;;;;;;53.90;36.03;;;;;;;;;;6328016;28;20055;-76
2023/10/08 02:05:20;;;;;;;52.38;34.88;;;;;;;;;;6328751;28;20446;-76
2023/10/08 02:08:23;;;;;;;54.83;35.47;;;;;;;;;;6329309;28;20060;-76
2023/10/08 02:11:27;;;;;;;59.30;36.92;;;;;;;;;;6320314;28;20064;-75
2023/10/08 02:14:31;;;;;;;63.78;34.33;;;;;;;;;;6305006;28;20150;-74
2023/10/08 02:17:33;;;;;;;54.47;33.80;;;;;;;;;;6305880;28;20057;-76
2023/10/08 02:20:34;;;;;;;50.85;32.78;;;;;;;;;;6305834;28;20053;-76
2023/10/08 02:23:38;;;;;;;47.75;32.28;;;;;;;;;;6330576;28;20062;-76
2023/10/08 02:26:40;;;;;;;53.03;30.95;;;;;;;;;;6326811;28;20045;-76
2023/10/08 02:29:41;;;;;;;52.72;32.08;;;;;;;;;;6304461;28;20064;-75
2023/10/08 02:32:43;;;;;;;44.60;29.88;;;;;;;;;;6306630;28;20970;-76
2023/10/08 02:35:46;;;;;;;45.67;29.00;;;;;;;;;;6321321;28;20054;-76
2023/10/08 02:38:49;;;;;;;45.80;28.50;;;;;;;;;;6333535;28;20050;-75
2023/10/08 02:41:51;;;;;;;;;;;;;;;;;;6334436;28;20325;-76
2023/10/08 02:44:53;;;;;;;45.63;29.98;;;;;;;;;;6329026;28;19933;-77
2023/10/08 02:47:55;;;;;;;46.20;28.10;;;;;;;;;;6309146;28;20339;-77
2023/10/08 02:51:06;;;;;;;44.47;29.08;;;;;;;;;;6313436;28;20112;-76
2023/10/08 02:54:16;;;;;;;47.53;30.70;;;;;;;;;;6312153;28;20054;-76
2023/10/08 02:57:19;;;;;;;46.88;30.95;;;;;;;;;;6328568;28;20036;-77
2023/10/08 03:00:21;;;;;;;50.47;30.95;;;;;;;;;;6330433;28;20109;-76
2023/10/08 03:03:24;;;;;;;48.17;30.77;;;;;;;;;;6331496;28;20116;-76
2023/10/08 03:06:26;;;;;;;50.20;31.55;;;;;;;;;;6327897;28;20055;-75
2023/10/08 03:09:32;;;;;;;48.47;30.10;;;;;;;;;;6317331;28;20047;-75
2023/10/08 03:12:34;;;;;;;52.00;31.30;;;;;;;;;;6321717;28;20352;-76
2023/10/08 03:15:46;;;;;;;43.67;29.27;;;;;;;;;;6307307;28;20318;-75
2023/10/08 03:18:50;;;;;;;47.17;28.65;;;;;;;;;;6307473;28;20051;-76
2023/10/08 03:21:56;;;;;;;48.17;29.58;;;;;;;;;;6307218;28;20321;-75
2023/10/08 03:25:14;;;;;;;49.90;30.58;;;;;;;;;;6305836;28;20340;-76
2023/10/08 03:28:16;;;;;;;45.08;28.95;;;;;;;;;;6305047;28;20045;-76
2023/10/08 03:31:19;;;;;;;44.38;29.05;;;;;;;;;;6305718;28;20390;-76
2023/10/08 03:34:27;;;;;;;50.42;30.05;;;;;;;;;;6306916;28;20044;-75
2023/10/08 03:37:30;;;;;;;42.95;29.48;;;;;;;;;;6317674;28;20059;-75
2023/10/08 03:40:42;;;;;;;43.33;29.35;;;;;;;;;;6311840;28;20337;-76
2023/10/08 03:43:52;;;;;;;43.40;28.67;;;;;;;;;;6307138;28;20040;-75
2023/10/08 03:46:56;;;;;;;47.15;29.63;;;;;;;;;;6307984;28;20060;-76
2023/10/08 03:50:05;;;;;;;45.92;29.55;;;;;;;;;;6306604;28;20048;-76
2023/10/08 03:53:11;;;;;;;46.33;30.25;;;;;;;;;;6316242;28;20586;-76
2023/10/08 03:56:14;;;;;;;45.95;30.02;;;;;;;;;;6313440;28;20146;-76
2023/10/08 03:59:20;;;;;;;44.25;29.02;;;;;;;;;;6321493;28;20392;-75
2023/10/08 04:02:32;;;;;;;45.42;30.15;;;;;;;;;;6305503;28;20056;-76
2023/10/08 04:05:44;;;;;;;45.70;29.80;;;;;;;;;;6317164;28;20052;-75
2023/10/08 04:08:58;;;;;;;46.70;28.70;;;;;;;;;;6309173;28;20079;-76
2023/10/08 04:12:10;;;;;;;51.40;31.33;;;;;;;;;;6316381;28;20044;-75
2023/10/08 04:15:16;;;;;;;45.03;28.92;;;;;;;;;;6301888;28;20052;-75
2023/10/08 04:18:20;;;;;;;47.35;28.55;;;;;;;;;;6319826;28;20051;-75
2023/10/08 04:21:27;;;;;;;44.55;27.38;;;;;;;;;;6305396;28;20103;-75
2023/10/08 04:24:30;;;;;;;44.85;28.67;;;;;;;;;;6323383;28;20044;-76
2023/10/08 04:27:37;;;;;;;43.28;27.55;;;;;;;;;;6329699;28;20044;-76
2023/10/08 04:30:41;;;;;;;42.72;26.38;;;;;;;;;;6327356;28;20374;-76
2023/10/08 04:33:44;;;;;;;40.67;26.80;;;;;;;;;;6317786;28;20093;-75
2023/10/08 04:36:46;;;;;;;34.83;24.92;;;;;;;;;;6304583;28;20446;-76
2023/10/08 04:39:54;;;;;;;36.83;24.20;;;;;;;;;;6305173;28;20236;-75
2023/10/08 04:43:01;;;;;;;36.80;25.20;;;;;;;;;;6303823;28;20048;-76
2023/10/08 04:46:05;;;;;;;36.83;24.83;;;;;;;;;;6306244;28;20064;-77
2023/10/08 04:49:18;;;;;;;37.75;24.42;;;;;;;;;;6328456;28;20051;-75
2023/10/08 04:52:25;;;;;;;39.78;26.13;;;;;;;;;;6331115;28;20051;-76
2023/10/08 04:55:28;;;;;;;42.17;25.48;;;;;;;;;;6329103;28;20040;-75
2023/10/08 04:58:36;;;;;;;36.53;25.45;;;;;;;;;;6328352;28;20217;-76
2023/10/08 05:01:47;;;;;;;38.47;26.10;;;;;;;;;;6316869;28;20052;-75
2023/10/08 05:05:21;;;;;;;38.55;24.95;;;;;;;;;;6300879;28;20074;-75
2023/10/08 05:08:33;;;;;;;37.15;24.38;;;;;;;;;;6319341;28;20044;-76
2023/10/08 05:11:46;;;;;;;35.78;23.52;;;;;;;;;;6302903;28;20060;-77
2023/10/08 05:15:21;;;;;;;39.47;21.55;;;;;;;;;;6304614;28;20045;-75
2023/10/08 05:18:37;;;;;;;31.60;21.00;;;;;;;;;;6303854;28;20329;-75
2023/10/08 05:21:51;;;;;;;31.00;19.77;;;;;;;;;;6303335;28;20074;-75
2023/10/08 05:25:07;;;;;;;27.90;18.23;;;;;;;;;;6303293;28;20044;-73
2023/10/08 05:28:11;;;;;;;28.60;17.50;;;;;;;;;;6329466;28;20637;-75
2023/10/08 05:31:36;;;;;;;29.88;17.00;;;;;;;;;;6320859;28;20055;-76
2023/10/08 05:34:50;;;;;;;28.20;16.60;;;;;;;;;;6308033;28;20057;-75
2023/10/08 05:38:13;;;;;;;24.23;15.15;;;;;;;;;;6301800;28;20058;-76
2023/10/08 05:41:38;;;;;;;23.80;14.90;;;;;;;;;;6304164;28;20325;-75
2023/10/08 05:44:40;;;;;;;23.60;15.55;;;;;;;;;;6316716;28;20051;-76
2023/10/08 05:48:07;;;;;;;23.25;14.32;;;;;;;;;;6303691;28;20307;-75
2023/10/08 05:51:13;;;;;;;23.85;14.32;;;;;;;;;;6304624;28;20057;-77
2023/10/08 05:54:35;;;;;;;20.40;13.80;;;;;;;;;;6303334;28;20084;-77
2023/10/08 05:57:38;;;;;;;26.45;13.55;;;;;;;;;;6330476;28;20103;-77
2023/10/08 06:04:20;;;;;;;20.35;12.90;;;;;;;;;;6309952;28;20048;-74
2023/10/08 06:07:33;;;;;;;17.63;11.38;;;;;;;;;;6321638;28;20107;-76
2023/10/08 06:10:43;;;;;;;17.52;11.60;;;;;;;;;;6319060;28;20041;-77
2023/10/08 06:13:50;;;;;;;17.58;10.68;;;;;;;;;;6315644;28;20068;-75
2023/10/08 06:17:13;;;;;;;18.35;11.07;;;;;;;;;;6316013;28;20040;-75
2023/10/08 06:20:16;;;;;;;17.88;10.98;;;;;;;;;;6317911;28;20094;-75
2023/10/08 06:23:19;;;;;;;16.77;9.82;;;;;;;;;;6312465;28;20044;-76
2023/10/08 06:26:24;;;;;;;17.25;9.75;;;;;;;;;;6307016;28;20064;-74
2023/10/08 06:29:29;;;;;;;15.88;9.35;;;;;;;;;;6309332;28;20071;-75
2023/10/08 06:32:31;;;;;;;16.75;9.43;;;;;;;;;;6310873;28;20048;-76
2023/10/08 06:35:34;;;;;;;13.30;9.10;;;;;;;;;;6318335;28;20057;-76
2023/10/08 06:38:36;;;;;;;21.77;9.68;;;;;;;;;;6308442;28;20052;-78
2023/10/08 06:41:37;;;;;;;15.23;9.07;;;;;;;;;;6310582;28;20055;-77
2023/10/08 06:44:42;;;;;;;18.38;8.80;;;;;;;;;;6307620;28;20051;-76
2023/10/08 06:47:45;;;;;;;15.57;8.30;;;;;;;;;;6307020;28;20129;-75
2023/10/08 06:50:49;;;;;;;18.73;8.35;;;;;;;;;;6306557;28;20090;-77
2023/10/08 06:53:51;;;;;;;13.75;8.40;;;;;;;;;;6321154;28;20047;-76
2023/10/08 06:56:53;;;;;;;14.55;8.52;;;;;;;;;;6328396;28;20378;-76
2023/10/08 06:59:54;;;;;;;16.67;8.48;;;;;;;;;;6315971;28;20202;-77
2023/10/08 07:02:56;;;;;;;20.40;8.75;;;;;;;;;;6307133;28;20044;-76
2023/10/08 07:06:00;;;;;;;17.95;8.23;;;;;;;;;;6319104;28;20051;-75
2023/10/08 07:09:05;;;;;;;18.83;9.18;;;;;;;;;;6310172;28;20098;-76
2023/10/08 07:12:13;;;;;;;15.23;7.60;;;;;;;;;;6307570;28;20067;-76
2023/10/08 07:15:23;;;;;;;14.25;7.47;;;;;;;;;;6305711;28;20063;-75
2023/10/08 07:18:25;;;;;;;13.10;7.20;;;;;;;;;;6305193;28;20085;-75
2023/10/08 07:21:29;;;;;;;13.93;7.40;;;;;;;;;;6304862;28;20063;-76
2023/10/08 07:24:34;;;;;;;17.27;6.57;;;;;;;;;;6305917;28;20075;-74
2023/10/08 07:27:37;;;;;;;12.95;6.40;;;;;;;;;;6330771;28;20074;-75
2023/10/08 07:30:43;;;;;;;15.30;6.57;;;;;;;;;;6313320;28;20123;-76
2023/10/08 07:33:47;;;;;;;11.73;6.25;;;;;;;;;;6306952;28;20055;-75
2023/10/08 07:36:51;;;;;;;10.98;6.45;;;;;;;;;;6310768;28;20049;-75
2023/10/08 07:39:55;;;;;;;14.48;7.10;;;;;;;;;;6315978;28;20040;-75
2023/10/08 07:42:56;;;;;;;;;;;;;;;;;;6324661;28;20144;-75
2023/10/08 07:45:58;;;;;;;14.32;7.55;;;;;;;;;;6331780;28;19915;-75
2023/10/08 07:48:59;;;;;;;15.45;7.45;;;;;;;;;;6332579;28;20441;-76
2023/10/08 07:52:05;;;;;;;13.88;6.50;;;;;;;;;;6333573;28;20075;-74
2023/10/08 07:55:08;;;;;;;13.40;6.53;;;;;;;;;;6329303;28;20070;-75
2023/10/08 07:58:11;;;;;;;16.88;7.68;;;;;;;;;;6305936;28;20283;-75
2023/10/08 08:01:13;;;;;;;14.77;6.40;;;;;;;;;;6304738;28;20060;-76
2023/10/08 08:04:22;;;;;;;10.90;6.07;;;;;;;;;;6308612;28;20040;-76
2023/10/08 08:07:25;;;;;;;11.77;5.40;;;;;;;;;;6327108;28;20040;-74
2023/10/08 08:10:27;;;;;;;10.65;4.70;;;;;;;;;;6306616;28;20044;-75
2023/10/08 08:13:29;;;;;;;12.38;5.57;;;;;;;;;;6306631;28;20118;-75
2023/10/08 08:16:31;;;;;;;16.40;5.43;;;;;;;;;;6304483;28;20052;-75
2023/10/08 08:19:33;;;;;;;12.23;5.20;;;;;;;;;;6304268;28;20345;-75
2023/10/08 08:22:40;;;;;;;12.25;5.28;;;;;;;;;;6324063;28;20040;-76
2023/10/08 08:29:00;;;;;;;15.45;5.05;;;;;;;;;;6319308;28;20057;-76
2023/10/08 08:32:04;;;;;;;11.93;5.35;;;;;;;;;;6305046;28;20049;-73
2023/10/08 08:35:07;;;;;;;14.57;5.20;;;;;;;;;;6305153;28;20336;-75
2023/10/08 08:38:12;;;;;;;;;;;;;;;;;;6305877;28;20053;-76
2023/10/08 08:41:17;;;;;;;13.45;5.50;;;;;;;;;;6310368;28;19919;-75
2023/10/08 08:44:20;;;;;;;10.85;5.20;;;;;;;;;;6323020;28;20060;-76
2023/10/08 08:47:24;;;;;;;13.23;5.67;;;;;;;;;;6329619;28;20051;-75
2023/10/08 08:50:26;;;;;;;11.18;5.80;;;;;;;;;;6329058;28;20055;-75
2023/10/08 08:53:29;;;;;;;12.93;5.95;;;;;;;;;;6314936;28;20052;-75
2023/10/08 08:56:31;;;;;;;13.20;6.18;;;;;;;;;;6309006;28;20056;-74
2023/10/08 08:59:36;;;;;;;14.93;7.05;;;;;;;;;;6309320;28;20060;-76
2023/10/08 09:02:38;;;;;;;14.77;6.10;;;;;;;;;;6304637;28;20301;-76
2023/10/08 09:05:40;;;;;;;10.13;5.95;;;;;;;;;;6316042;28;20059;-76
2023/10/08 09:08:45;;;;;;;16.00;5.87;;;;;;;;;;6324367;28;20298;-76
2023/10/08 09:11:47;;;;;;;17.00;6.40;;;;;;;;;;6326122;28;20044;-76
2023/10/08 09:14:49;;;;;;;20.23;6.35;;;;;;;;;;6330010;28;20825;-75
2023/10/08 09:17:51;;;;;;;12.65;6.07;;;;;;;;;;6328869;28;20067;-76
2023/10/08 09:20:55;;;;;;;14.45;6.97;;;;;;;;;;6331020;28;20040;-76
2023/10/08 09:23:58;;;;;;;15.98;7.55;;;;;;;;;;6326913;28;20048;-76
2023/10/08 09:26:59;;;;;;;;;;;;;;;;;;6331733;28;20078;-77
2023/10/08 09:30:08;;;;;;;18.67;8.68;;;;;;;;;;6329538;28;20006;-76
2023/10/08 09:33:12;;;;;;;18.95;8.40;;;;;;;;;;6309942;28;20103;-75
2023/10/08 09:36:18;;;;;;;13.82;6.40;;;;;;;;;;6301645;28;21405;-76
2023/10/08 09:39:25;;;;;;;14.80;8.38;;;;;;;;;;6304765;28;20386;-76
2023/10/08 09:42:27;;;;;;;15.38;9.25;;;;;;;;;;6321370;28;20059;-76
2023/10/08 09:45:29;;;;;;;20.95;10.52;;;;;;;;;;6330680;28;20044;-77
2023/10/08 09:48:32;;;;;;;14.68;9.10;;;;;;;;;;6329579;28;20115;-76
2023/10/08 09:51:38;;;;;;;19.50;10.20;;;;;;;;;;6327480;28;20339;-76
2023/10/08 09:54:47;;;;;;;17.88;10.13;;;;;;;;;;6309229;28;20189;-76
2023/10/08 09:57:50;;;;;;;19.95;9.88;;;;;;;;;;6329264;28;20107;-76
2023/10/08 10:00:53;;;;;;;20.77;9.30;;;;;;;;;;6307106;28;20050;-76
2023/10/08 10:03:55;;;;;;;;;;;;;;;;;;6302910;28;20063;-76
2023/10/08 10:06:58;;;;;;;14.63;9.77;;;;;;;;;;6320964;28;19924;-75
2023/10/08 10:10:02;;;;;;;16.77;9.88;;;;;;;;;;6316792;28;20059;-77
2023/10/08 10:13:04;;;;;;;15.60;9.70;;;;;;;;;;6301092;28;20059;-77
2023/10/08 10:16:08;;;;;;;14.68;8.10;;;;;;;;;;6299937;28;20138;-74
2023/10/08 10:19:17;;;;;;;19.98;9.55;;;;;;;;;;6300828;28;20236;-76
2023/10/08 10:22:29;;;;;;;14.77;8.80;;;;;;;;;;6312343;28;20067;-76
2023/10/08 10:25:42;;;;;;;17.58;9.57;;;;;;;;;;6305295;28;20104;-76
2023/10/08 10:28:44;;;;;;;15.80;7.70;;;;;;;;;;6312866;28;20493;-77
2023/10/08 10:31:47;;;;;;;14.13;8.60;;;;;;;;;;6306620;28;20339;-78
2023/10/08 10:34:51;;;;;;;14.50;7.97;;;;;;;;;;6319080;28;20102;-77
2023/10/08 10:37:55;;;;;;;16.98;7.78;;;;;;;;;;6308771;28;20055;-77
2023/10/08 10:40:58;;;;;;;18.63;8.90;;;;;;;;;;6298139;28;20244;-77
2023/10/08 10:44:08;;;;;;;16.73;8.82;;;;;;;;;;6302696;28;20063;-75
2023/10/08 10:47:27;;;;;;;19.73;8.93;;;;;;;;;;6303049;28;20113;-77
2023/10/08 10:50:31;;;;;;;14.48;9.40;;;;;;;;;;6316211;28;20233;-76
2023/10/08 10:53:33;;;;;;;16.45;9.77;;;;;;;;;;6319393;28;20080;-77
2023/10/08 10:56:42;;;;;;;22.40;10.67;;;;;;;;;;6306322;28;20044;-77
2023/10/08 10:59:53;;;;;;;15.80;9.77;;;;;;;;;;6320108;28;20043;-77
2023/10/08 11:02:59;;;;;;;16.50;10.00;;;;;;;;;;6308551;28;20051;-78
2023/10/08 11:06:05;;;;;;;19.40;9.48;;;;;;;;;;6312222;28;20105;-77
2023/10/08 11:09:14;;;;;;;15.65;9.98;;;;;;;;;;6312297;28;20451;-77
2023/10/08 11:12:22;;;;;;;12.90;8.70;;;;;;;;;;6332879;28;20056;-78
2023/10/08 11:15:24;;;;;;;19.42;10.32;;;;;;;;;;6323160;28;20052;-77
2023/10/08 11:18:28;;;;;;;17.02;10.45;;;;;;;;;;6324347;28;20210;-77
2023/10/08 11:21:33;;;;;;;18.73;9.90;;;;;;;;;;6322513;28;20051;-78
2023/10/08 11:24:37;;;;;;;17.10;9.70;;;;;;;;;;6307530;28;20329;-77
2023/10/08 11:27:44;;;;;;;19.02;10.65;;;;;;;;;;6319670;28;20055;-78
2023/10/08 11:30:51;;;;;;;14.80;9.35;;;;;;;;;;6328975;28;20050;-78
2023/10/08 11:33:55;;;;;;;15.10;8.52;;;;;;;;;;6305989;28;20367;-78
2023/10/08 11:36:56;;;;;;;15.55;8.20;;;;;;;;;;6307363;28;20040;-77
2023/10/08 11:40:17;;;;;;;16.25;7.03;;;;;;;;;;6307969;28;20056;-77
2023/10/08 11:43:21;;;;;;;15.98;9.27;;;;;;;;;;6315701;28;20095;-78
2023/10/08 11:46:25;;;;;;;17.27;10.00;;;;;;;;;;6332641;28;20066;-75
2023/10/08 11:49:27;;;;;;;16.33;8.68;;;;;;;;;;6333132;28;20209;-77
2023/10/08 11:52:29;;;;;;;13.93;8.60;;;;;;;;;;6331320;28;20059;-76
2023/10/08 11:55:35;;;;;;;13.23;8.07;;;;;;;;;;6317215;28;20047;-77
2023/10/08 11:58:38;;;;;;;13.23;7.75;;;;;;;;;;6327436;28;20114;-78
2023/10/08 12:01:42;;;;;;;16.85;8.02;;;;;;;;;;6331083;28;20093;-77
2023/10/08 12:04:44;;;;;;;19.38;8.55;;;;;;;;;;6329496;28;20058;-77
2023/10/08 12:07:47;;;;;;;;;;;;;;;;;;6333677;28;20043;-77
2023/10/08 12:10:53;;;;;;;14.43;7.90;;;;;;;;;;6323445;28;19954;-78
2023/10/08 12:13:56;;;;;;;16.30;7.78;;;;;;;;;;6305606;28;20489;-78
2023/10/08 12:17:00;;;;;;;13.05;8.30;;;;;;;;;;6312243;28;20236;-79
2023/10/08 12:20:12;;;;;;;15.57;7.85;;;;;;;;;;6317558;28;20051;-78
2023/10/08 12:23:24;;;;;;;15.13;7.35;;;;;;;;;;6323868;28;20298;-79
2023/10/08 12:26:26;;;;;;;14.30;7.20;;;;;;;;;;6306968;28;20060;-78
2023/10/08 12:29:32;;;;;;;14.77;7.38;;;;;;;;;;6320402;28;20051;-78
2023/10/08 12:32:36;;;;;;;12.05;7.22;;;;;;;;;;6331819;28;20060;-78
2023/10/08 12:35:37;;;;;;;13.93;7.70;;;;;;;;;;6331950;28;20422;-78
2023/10/08 12:38:41;;;;;;;16.20;7.45;;;;;;;;;;6328514;28;20055;-77
2023/10/08 12:41:43;;;;;;;14.00;6.90;;;;;;;;;;6318270;28;20358;-78
2023/10/08 12:44:48;;;;;;;23.10;7.32;;;;;;;;;;6310505;28;20112;-78
2023/10/08 12:47:50;;;;;;;14.52;7.20;;;;;;;;;;6310000;28;20079;-77
2023/10/08 12:50:56;;;;;;;;;;;;;;;;;;6309389;28;20085;-78
2023/10/08 12:54:03;;;;;;;13.25;7.03;;;;;;;;;;6313529;28;19923;-77
2023/10/08 12:57:08;;;;;;;15.73;7.00;;;;;;;;;;6321581;28;20052;-77
2023/10/08 13:00:13;;;;;;;14.68;6.93;;;;;;;;;;6324301;28;20056;-78
2023/10/08 13:03:23;;;;;;;15.57;7.03;;;;;;;;;;6322772;28;20329;-78
2023/10/08 13:06:28;;;;;;;19.27;6.47;;;;;;;;;;6305180;28;20056;-77
2023/10/08 13:09:30;;;;;;;12.05;5.70;;;;;;;;;;6305040;28;20053;-77
2023/10/08 13:12:32;;;;;;;12.70;5.80;;;;;;;;;;6306075;28;20064;-78
2023/10/08 13:15:35;;;;;;;12.30;5.32;;;;;;;;;;6305346;28;20288;-77
2023/10/08 13:18:38;;;;;;;15.27;5.55;;;;;;;;;;6304312;28;20063;-77
2023/10/08 13:21:39;;;;;;;11.70;5.25;;;;;;;;;;6305700;28;20283;-77
2023/10/08 13:24:41;;;;;;;13.88;4.82;;;;;;;;;;6305986;28;20314;-78
2023/10/08 13:27:43;;;;;;;13.55;4.88;;;;;;;;;;6305923;28;20386;-78
2023/10/08 13:30:47;;;;;;;11.50;4.95;;;;;;;;;;6322087;28;20068;-77
2023/10/08 13:33:51;;;;;;;13.23;4.43;;;;;;;;;;6305101;28;20048;-78
2023/10/08 13:36:53;;;;;;;10.60;4.38;;;;;;;;;;6329030;28;20288;-78
2023/10/08 13:39:55;;;;;;;10.60;4.25;;;;;;;;;;6317206;28;20063;-78
2023/10/08 13:42:57;;;;;;;13.48;4.43;;;;;;;;;;6305837;28;20258;-78
2023/10/08 13:46:03;;;;;;;12.82;4.50;;;;;;;;;;6305318;28;20075;-77
2023/10/08 13:49:08;;;;;;;15.75;4.30;;;;;;;;;;6306630;28;20295;-77
2023/10/08 13:52:10;;;;;;;10.57;4.05;;;;;;;;;;6320923;28;20344;-77
2023/10/08 13:55:13;;;;;;;11.82;4.20;;;;;;;;;;6305733;28;20117;-78
2023/10/08 13:58:15;;;;;;;18.98;4.85;;;;;;;;;;6322164;28;20059;-77
2023/10/08 14:01:21;;;;;;;14.90;4.43;;;;;;;;;;6304728;28;20316;-77
2023/10/08 14:04:29;;;;;;;14.20;3.70;;;;;;;;;;6304129;28;20049;-78
2023/10/08 14:07:31;;;;;;;11.45;3.38;;;;;;;;;;6324456;28;20044;-77
2023/10/08 14:10:33;;;;;;;10.02;3.72;;;;;;;;;;6310741;28;20044;-78
2023/10/08 14:13:36;;;;;;;15.07;3.85;;;;;;;;;;6329160;28;20116;-78
2023/10/08 14:16:41;;;;;;;13.90;4.32;;;;;;;;;;6326853;28;20052;-78
2023/10/08 14:19:51;;;;;;;11.75;3.83;;;;;;;;;;6305000;28;20402;-77
2023/10/08 14:22:57;;;;;;;12.95;4.50;;;;;;;;;;6304660;28;20049;-78
2023/10/08 14:26:03;;;;;;;12.48;3.00;;;;;;;;;;6312668;28;20052;-78
2023/10/08 14:29:10;;;;;;;9.30;2.95;;;;;;;;;;6331238;28;20285;-78
2023/10/08 14:32:15;;;;;;;11.07;2.97;;;;;;;;;;6334962;28;20107;-78
2023/10/08 14:45:18;;;;;;;12.63;3.60;;;;;;;;;;6308855;28;20443;-78
2023/10/08 14:48:22;;;;;;;11.63;3.08;;;;;;;;;;6311780;28;20083;-79
2023/10/08 14:51:24;;;;;;;15.15;4.20;;;;;;;;;;6318022;28;20048;-78
2023/10/08 14:54:25;;;;;;;;;;;;;;;;;;6315342;28;20044;-77
2023/10/08 14:57:27;;;;;;;13.93;4.47;;;;;;;;;;6303554;28;19992;-77
2023/10/08 15:00:31;;;;;;;12.93;3.60;;;;;;;;;;6304282;28;20121;-78
2023/10/08 15:03:36;;;;;;;13.18;3.95;;;;;;;;;;6307096;28;20107;-78
2023/10/08 15:06:39;;;;;;;17.90;4.55;;;;;;;;;;6307328;28;20244;-78
2023/10/08 15:09:41;;;;;;;10.68;4.40;;;;;;;;;;6306883;28;20056;-75
2023/10/08 15:12:42;;;;;;;;;;;;;;;;;;6316663;28;20071;-77
2023/10/08 15:15:44;;;;;;;11.10;4.20;;;;;;;;;;6309170;28;19925;-78
2023/10/08 15:18:47;;;;;;;13.15;4.05;;;;;;;;;;6310763;28;20344;-78
2023/10/08 15:21:51;;;;;;;13.65;4.00;;;;;;;;;;6330718;28;20048;-78
2023/10/08 15:24:52;;;;;;;15.43;4.05;;;;;;;;;;6317220;28;20147;-75
2023/10/08 15:27:54;;;;;;;10.05;4.47;;;;;;;;;;6320004;28;20260;-78
2023/10/08 15:30:56;;;;;;;12.80;4.15;;;;;;;;;;6320517;28;20064;-78
2023/10/08 15:33:59;;;;;;;11.50;4.03;;;;;;;;;;6316746;28;20052;-78
2023/10/08 15:37:01;;;;;;;13.02;3.95;;;;;;;;;;6316803;28;20068;-78
2023/10/08 15:40:06;;;;;;;16.75;4.82;;;;;;;;;;6306952;28;20059;-78
2023/10/08 15:43:07;;;;;;;18.67;4.40;;;;;;;;;;6330338;28;20056;-78
2023/10/08 15:46:09;;;;;;;10.50;3.70;;;;;;;;;;6315924;28;20116;-78
2023/10/08 15:49:12;;;;;;;10.85;4.10;;;;;;;;;;6325229;28;20161;-79
2023/10/08 15:52:16;;;;;;;12.82;3.95;;;;;;;;;;6331661;28;20069;-77
2023/10/08 15:55:18;;;;;;;9.30;3.92;;;;;;;;;;6322258;28;20054;-76
2023/10/08 15:58:23;;;;;;;13.82;4.45;;;;;;;;;;6323693;28;20055;-76
2023/10/08 16:01:26;;;;;;;8.68;4.38;;;;;;;;;;6332539;28;20063;-77
2023/10/08 16:04:29;;;;;;;9.90;4.47;;;;;;;;;;6324727;28;20048;-78
2023/10/08 16:07:31;;;;;;;12.57;4.50;;;;;;;;;;6307688;28;20080;-77
2023/10/08 16:10:32;;;;;;;15.63;4.40;;;;;;;;;;6316948;28;20121;-79
2023/10/08 16:13:34;;;;;;;12.43;4.50;;;;;;;;;;6331511;28;20043;-79
2023/10/08 16:16:36;;;;;;;11.00;4.65;;;;;;;;;;6328019;28;20048;-78
2023/10/08 16:19:40;;;;;;;12.30;4.85;;;;;;;;;;6311648;28;20132;-79
2023/10/08 16:22:42;;;;;;;16.40;4.70;;;;;;;;;;6325647;28;20044;-79
2023/10/08 16:25:43;;;;;;;11.35;4.60;;;;;;;;;;6330397;28;20058;-79
2023/10/08 16:28:45;;;;;;;22.60;4.97;;;;;;;;;;6330842;28;20109;-78
2023/10/08 16:31:47;;;;;;;11.63;4.33;;;;;;;;;;6318685;28;20127;-79
2023/10/08 16:34:50;;;;;;;13.57;4.95;;;;;;;;;;6305108;28;20041;-79
2023/10/08 16:37:53;;;;;;;11.43;4.75;;;;;;;;;;6306535;28;20060;-78
2023/10/08 16:40:54;;;;;;;15.25;5.43;;;;;;;;;;6304921;28;20049;-78
2023/10/08 16:43:56;;;;;;;16.27;5.63;;;;;;;;;;6306204;28;20532;-78
2023/10/08 16:46:58;;;;;;;15.05;5.38;;;;;;;;;;6307038;28;20060;-78
2023/10/08 16:50:01;;;;;;;12.70;5.20;;;;;;;;;;6325938;28;20063;-78
2023/10/08 16:53:03;;;;;;;14.55;6.22;;;;;;;;;;6309757;28;20053;-78
2023/10/08 16:56:06;;;;;;;11.53;4.83;;;;;;;;;;6306586;28;20124;-78
2023/10/08 16:59:10;;;;;;;18.48;5.28;;;;;;;;;;6311619;28;20091;-79
2023/10/08 17:02:12;;;;;;;11.57;4.93;;;;;;;;;;6330303;28;20056;-79
2023/10/08 17:05:15;;;;;;;17.90;6.00;;;;;;;;;;6304559;28;20056;-78
2023/10/08 17:08:18;;;;;;;17.98;6.38;;;;;;;;;;6305504;28;20056;-78
2023/10/08 17:11:20;;;;;;;11.80;5.82;;;;;;;;;;6328023;28;20059;-77
2023/10/08 17:14:22;;;;;;;14.77;6.15;;;;;;;;;;6307140;28;20170;-78
2023/10/08 17:17:24;;;;;;;14.30;5.60;;;;;;;;;;6312689;28;20067;-78
2023/10/08 17:20:27;;;;;;;21.23;5.97;;;;;;;;;;6308590;28;20639;-79
2023/10/08 17:23:29;;;;;;;12.77;5.82;;;;;;;;;;6329077;28;20067;-78
2023/10/08 17:26:31;;;;;;;14.43;5.97;;;;;;;;;;6330605;28;20066;-79
2023/10/08 17:29:33;;;;;;;14.93;6.43;;;;;;;;;;6330425;28;20412;-79
2023/10/08 17:32:35;;;;;;;15.43;6.70;;;;;;;;;;6330543;28;20048;-78
2023/10/08 17:35:38;;;;;;;15.73;6.07;;;;;;;;;;6330706;28;20060;-79
2023/10/08 17:38:40;;;;;;;19.05;6.72;;;;;;;;;;6310089;28;20048;-79
2023/10/08 17:41:42;;;;;;;14.73;5.93;;;;;;;;;;6329935;28;20067;-78
2023/10/08 17:44:45;;;;;;;15.70;6.05;;;;;;;;;;6329500;28;20059;-78
2023/10/08 17:47:47;;;;;;;13.77;5.82;;;;;;;;;;6330551;28;20340;-77
2023/10/08 17:50:51;;;;;;;21.50;5.65;;;;;;;;;;6328516;28;20131;-78
2023/10/08 17:53:53;;;;;;;11.90;5.25;;;;;;;;;;6330950;28;20044;-78
2023/10/08 17:56:55;;;;;;;14.17;4.67;;;;;;;;;;6306514;28;20104;-78
2023/10/08 17:59:57;;;;;;;14.30;5.72;;;;;;;;;;6318911;28;20056;-78
2023/10/08 18:02:59;;;;;;;14.63;4.95;;;;;;;;;;6309556;28;20240;-78
2023/10/08 18:06:04;;;;;;;15.38;4.93;;;;;;;;;;6321836;28;20105;-78
2023/10/08 18:09:09;;;;;;;11.38;5.35;;;;;;;;;;6314611;28;20044;-78
2023/10/08 18:12:11;;;;;;;15.13;5.15;;;;;;;;;;6319087;28;20511;-79
2023/10/08 18:15:15;;;;;;;10.30;4.13;;;;;;;;;;6309480;28;20057;-79
2023/10/08 18:18:17;;;;;;;14.07;4.65;;;;;;;;;;6309223;28;20055;-79
2023/10/08 18:21:21;;;;;;;13.50;4.18;;;;;;;;;;6334526;28;20050;-78
2023/10/08 18:24:27;;;;;;;12.23;4.55;;;;;;;;;;6317674;28;20071;-77
2023/10/08 18:27:29;;;;;;;16.17;4.30;;;;;;;;;;6325378;28;20044;-78